createdAt,value
2017-04-03T00:00:56.188Z,0
2017-04-03T00:02:08.727Z,0
2017-04-03T00:03:21.266Z,0
2017-04-03T00:04:33.794Z,0
2017-04-03T00:05:46.621Z,0
2017-04-03T00:06:58.881Z,0
2017-04-03T00:08:11.424Z,0
2017-04-03T00:09:23.953Z,0
2017-04-03T00:10:36.452Z,0
2017-04-03T00:11:48.962Z,0
2017-04-03T00:13:01.215Z,0
2017-04-03T00:14:13.764Z,0
2017-04-03T00:15:26.327Z,0
2017-04-03T00:16:38.807Z,0
2017-04-03T00:17:51.351Z,0
2017-04-03T00:19:03.887Z,0
2017-04-03T00:20:16.419Z,0
2017-04-03T00:21:28.658Z,0
2017-04-03T00:22:41.185Z,0
2017-04-03T00:23:53.706Z,0
2017-04-03T00:25:06.246Z,0
2017-04-03T00:26:18.788Z,0
2017-04-03T00:27:31.315Z,0
2017-04-03T00:28:43.287Z,0
2017-04-03T00:29:55.858Z,0
2017-04-03T00:31:08.079Z,0
2017-04-03T00:32:20.322Z,0
2017-04-03T00:33:32.819Z,0
2017-04-03T00:34:45.062Z,0
2017-04-03T00:35:57.604Z,0
2017-04-03T00:37:09.838Z,0
2017-04-03T00:38:22.382Z,0
2017-04-03T00:39:34.921Z,0
2017-04-03T00:40:47.164Z,0
2017-04-03T00:41:59.696Z,0
2017-04-03T00:43:12.266Z,0
2017-04-03T00:44:24.475Z,0
2017-04-03T00:45:36.422Z,0
2017-04-03T00:46:48.696Z,0
2017-04-03T00:48:01.218Z,0
2017-04-03T00:49:13.717Z,0
2017-04-03T00:50:25.939Z,0
2017-04-03T00:51:38.490Z,0
2017-04-03T00:52:51.026Z,0
2017-04-03T00:54:03.276Z,0
2017-04-03T00:55:15.541Z,0
2017-04-03T00:56:28.068Z,0
2017-04-03T00:57:40.581Z,0
2017-04-03T00:58:52.811Z,0
2017-04-03T01:00:05.056Z,0
2017-04-03T01:01:17.626Z,0
2017-04-03T01:02:29.855Z,0
2017-04-03T01:03:42.072Z,0
2017-04-03T01:04:54.617Z,0
2017-04-03T01:06:06.845Z,0
2017-04-03T01:07:19.060Z,0
2017-04-03T01:08:31.278Z,0
2017-04-03T01:09:43.490Z,0
2017-04-03T01:10:56.050Z,0
2017-04-03T01:12:08.590Z,0
2017-04-03T01:13:21.114Z,0
2017-04-03T01:14:33.056Z,0
2017-04-03T01:15:45.303Z,0
2017-04-03T01:16:57.828Z,0
2017-04-03T01:18:10.066Z,0
2017-04-03T01:19:22.583Z,0
2017-04-03T01:20:34.811Z,0
2017-04-03T01:21:47.682Z,0
2017-04-03T01:23:00.224Z,0
2017-04-03T01:24:12.779Z,0
2017-04-03T01:25:25.326Z,0
2017-04-03T01:26:37.540Z,0
2017-04-03T01:27:49.469Z,0
2017-04-03T01:29:01.986Z,0
2017-04-03T01:30:14.534Z,0
2017-04-03T01:31:26.732Z,0
2017-04-03T01:32:39.292Z,0
2017-04-03T01:33:51.519Z,0
2017-04-03T01:35:04.064Z,0
2017-04-03T01:36:16.284Z,0
2017-04-03T01:37:28.807Z,0
2017-04-03T01:38:41.029Z,0
2017-04-03T01:39:53.546Z,0
2017-04-03T01:41:06.067Z,0
2017-04-03T01:42:18.606Z,0
2017-04-03T01:43:31.076Z,0
2017-04-03T01:44:43.628Z,0
2017-04-03T01:45:55.879Z,0
2017-04-03T01:47:08.425Z,0
2017-04-03T01:48:20.635Z,0
2017-04-03T01:49:32.891Z,0
2017-04-03T01:50:45.426Z,0
2017-04-03T01:51:57.973Z,0
2017-04-03T01:53:10.517Z,0
2017-04-03T01:54:22.439Z,0
2017-04-03T01:55:34.996Z,0
2017-04-03T01:56:47.531Z,0
2017-04-03T01:57:59.756Z,0
2017-04-03T01:59:12.002Z,0
2017-04-03T02:00:24.545Z,0
2017-04-03T02:01:36.472Z,0
2017-04-03T02:02:48.974Z,0
2017-04-03T02:04:01.520Z,0
2017-04-03T02:05:13.760Z,0
2017-04-03T02:06:26.278Z,0
2017-04-03T02:07:38.819Z,0
2017-04-03T02:08:51.355Z,0
2017-04-03T02:10:03.589Z,0
2017-04-03T02:11:15.546Z,0
2017-04-03T02:12:27.469Z,0
2017-04-03T02:13:39.728Z,0
2017-04-03T02:14:52.245Z,0
2017-04-03T02:16:05.065Z,0
2017-04-03T02:17:17.645Z,0
2017-04-03T02:18:30.140Z,0
2017-04-03T02:19:42.365Z,0
2017-04-03T02:20:54.907Z,0
2017-04-03T02:22:07.421Z,0
2017-04-03T02:23:19.942Z,0
2017-04-03T02:24:32.473Z,0
2017-04-03T02:25:44.691Z,0
2017-04-03T02:26:57.216Z,0
2017-04-03T02:28:09.778Z,0
2017-04-03T02:29:22.002Z,0
2017-04-03T02:30:33.928Z,0
2017-04-03T02:31:46.449Z,0
2017-04-03T02:32:58.345Z,0
2017-04-03T02:34:10.893Z,0
2017-04-03T02:35:23.411Z,0
2017-04-03T02:36:35.972Z,0
2017-04-03T02:37:48.528Z,0
2017-04-03T02:39:01.053Z,0
2017-04-03T02:40:13.574Z,0
2017-04-03T02:41:26.116Z,0
2017-04-03T02:42:38.639Z,0
2017-04-03T02:43:51.156Z,0
2017-04-03T02:45:03.679Z,0
2017-04-03T02:46:15.921Z,0
2017-04-03T02:47:28.445Z,0
2017-04-03T02:48:41.269Z,0
2017-04-03T02:49:53.787Z,0
2017-04-03T02:51:06.050Z,0
2017-04-03T02:52:18.556Z,0
2017-04-03T02:53:30.804Z,0
2017-04-03T02:54:43.371Z,0
2017-04-03T02:55:55.905Z,0
2017-04-03T02:57:08.430Z,0
2017-04-03T02:58:20.986Z,0
2017-04-03T02:59:33.544Z,0
2017-04-03T03:00:46.089Z,0
2017-04-03T03:01:57.994Z,0
2017-04-03T03:03:10.514Z,0
2017-04-03T03:04:22.738Z,0
2017-04-03T03:05:35.256Z,0
2017-04-03T03:06:47.176Z,0
2017-04-03T03:07:59.715Z,0
2017-04-03T03:09:12.245Z,0
2017-04-03T03:10:25.032Z,0
2017-04-03T03:11:37.602Z,0
2017-04-03T03:12:50.149Z,0
2017-04-03T03:14:02.652Z,0
2017-04-03T03:15:15.173Z,0
2017-04-03T03:16:27.694Z,0
2017-04-03T03:17:40.207Z,0
2017-04-03T03:18:52.438Z,0
2017-04-03T03:20:04.960Z,0
2017-04-03T03:21:17.797Z,0
2017-04-03T03:22:30.323Z,0
2017-04-03T03:23:42.847Z,0
2017-04-03T03:24:55.382Z,0
2017-04-03T03:26:07.932Z,0
2017-04-03T03:27:20.460Z,0
2017-04-03T03:28:32.978Z,0
2017-04-03T03:29:45.202Z,0
2017-04-03T03:30:57.719Z,0
2017-04-03T03:32:10.473Z,0
2017-04-03T03:33:23.037Z,0
2017-04-03T03:34:35.557Z,0
2017-04-03T03:35:48.124Z,0
2017-04-03T03:37:00.677Z,0
2017-04-03T03:38:13.211Z,0
2017-04-03T03:39:25.158Z,0
2017-04-03T03:40:37.690Z,0
2017-04-03T03:41:50.208Z,0
2017-04-03T03:43:02.754Z,0
2017-04-03T03:44:14.980Z,0
2017-04-03T03:45:27.195Z,0
2017-04-03T03:46:39.444Z,0
2017-04-03T03:47:51.662Z,0
2017-04-03T03:49:03.861Z,0
2017-04-03T03:50:15.774Z,0
2017-04-03T03:51:27.993Z,0
2017-04-03T03:52:40.539Z,0
2017-04-03T03:53:53.371Z,0
2017-04-03T03:55:05.892Z,0
2017-04-03T03:56:18.412Z,0
2017-04-03T03:57:30.936Z,0
2017-04-03T03:58:43.478Z,0
2017-04-03T03:59:56.014Z,0
2017-04-03T04:01:07.948Z,0
2017-04-03T04:02:20.182Z,0
2017-04-03T04:03:32.783Z,0
2017-04-03T04:04:45.230Z,0
2017-04-03T04:05:57.172Z,0
2017-04-03T04:07:09.703Z,0
2017-04-03T04:08:21.921Z,0
2017-04-03T04:09:34.446Z,0
2017-04-03T04:10:47.014Z,0
2017-04-03T04:11:59.534Z,0
2017-04-03T04:13:12.079Z,0
2017-04-03T04:14:24.593Z,0
2017-04-03T04:15:36.827Z,0
2017-04-03T04:16:49.360Z,0
2017-04-03T04:18:01.915Z,0
2017-04-03T04:19:14.431Z,0
2017-04-03T04:20:26.673Z,0
2017-04-03T04:21:39.199Z,0
2017-04-03T04:22:51.444Z,0
2017-04-03T04:24:03.992Z,0
2017-04-03T04:25:16.540Z,0
2017-04-03T04:26:29.081Z,5
2017-04-03T04:27:41.628Z,5
2017-04-03T04:28:54.202Z,5
2017-04-03T04:30:06.744Z,5
2017-04-03T04:31:18.961Z,5
2017-04-03T04:32:30.886Z,5
2017-04-03T04:33:43.437Z,5
2017-04-03T04:34:55.982Z,5
2017-04-03T04:36:08.225Z,5
2017-04-03T04:37:20.721Z,10
2017-04-03T04:38:33.266Z,10
2017-04-03T04:39:45.804Z,10
2017-04-03T04:40:58.326Z,10
2017-04-03T04:42:10.273Z,10
2017-04-03T04:43:22.803Z,10
2017-04-03T04:44:35.374Z,10
2017-04-03T04:45:47.594Z,10
2017-04-03T04:47:00.117Z,10
2017-04-03T04:48:12.628Z,15
2017-04-03T04:49:25.226Z,15
2017-04-03T04:50:37.450Z,15
2017-04-03T04:51:49.688Z,15
2017-04-03T04:53:02.219Z,15
2017-04-03T04:54:14.441Z,15
2017-04-03T04:55:26.979Z,20
2017-04-03T04:56:39.194Z,20
2017-04-03T04:57:51.446Z,20
2017-04-03T04:59:03.978Z,25
2017-04-03T05:00:16.520Z,25
2017-04-03T05:01:28.738Z,25
2017-04-03T05:02:41.263Z,30
2017-04-03T05:03:53.831Z,35
2017-04-03T05:05:06.344Z,45
2017-04-03T05:06:18.575Z,40
2017-04-03T05:07:30.801Z,40
2017-04-03T05:08:43.057Z,40
2017-04-03T05:09:55.906Z,40
2017-04-03T05:11:08.405Z,45
2017-04-03T05:12:20.931Z,55
2017-04-03T05:13:33.494Z,50
2017-04-03T05:14:46.019Z,55
2017-04-03T05:15:58.560Z,55
2017-04-03T05:17:11.102Z,60
2017-04-03T05:18:23.649Z,65
2017-04-03T05:19:36.197Z,60
2017-04-03T05:20:48.749Z,65
2017-04-03T05:22:01.266Z,70
2017-04-03T05:23:13.793Z,70
2017-04-03T05:24:26.007Z,75
2017-04-03T05:25:38.540Z,70
2017-04-03T05:26:51.059Z,70
2017-04-03T05:28:03.608Z,70
2017-04-03T05:29:16.145Z,75
2017-04-03T05:30:28.687Z,80
2017-04-03T05:31:41.190Z,75
2017-04-03T05:32:53.728Z,70
2017-04-03T05:34:05.678Z,65
2017-04-03T05:35:18.199Z,80
2017-04-03T05:36:30.422Z,100
2017-04-03T05:37:42.970Z,125
2017-04-03T05:38:55.207Z,115
2017-04-03T05:40:07.737Z,145
2017-04-03T05:41:19.996Z,175
2017-04-03T05:42:32.227Z,170
2017-04-03T05:43:44.746Z,185
2017-04-03T05:44:57.262Z,185
2017-04-03T05:46:09.780Z,200
2017-04-03T05:47:21.686Z,240
2017-04-03T05:48:33.879Z,240
2017-04-03T05:49:46.121Z,265
2017-04-03T05:50:58.664Z,275
2017-04-03T05:52:11.197Z,290
2017-04-03T05:53:23.763Z,275
2017-04-03T05:54:36.305Z,285
2017-04-03T05:55:48.852Z,290
2017-04-03T05:57:01.403Z,290
2017-04-03T05:58:13.941Z,270
2017-04-03T05:59:26.174Z,245
2017-04-03T06:00:38.738Z,255
2017-04-03T06:01:51.237Z,250
2017-04-03T06:03:03.780Z,265
2017-04-03T06:04:16.321Z,250
2017-04-03T06:05:28.827Z,280
2017-04-03T06:06:41.060Z,300
2017-04-03T06:07:53.592Z,320
2017-04-03T06:09:06.140Z,340
2017-04-03T06:10:18.698Z,325
2017-04-03T06:11:31.225Z,385
2017-04-03T06:12:43.748Z,480
2017-04-03T06:13:56.294Z,440
2017-04-03T06:15:08.842Z,405
2017-04-03T06:16:21.363Z,365
2017-04-03T06:17:33.898Z,335
2017-04-03T06:18:46.422Z,305
2017-04-03T06:19:58.968Z,295
2017-04-03T06:21:11.496Z,350
2017-04-03T06:22:24.056Z,355
2017-04-03T06:23:35.706Z,290
2017-04-03T06:24:47.931Z,310
2017-04-03T06:26:00.485Z,330
2017-04-03T06:27:12.701Z,305
2017-04-03T06:28:24.937Z,295
2017-04-03T06:29:36.866Z,265
2017-04-03T06:30:49.414Z,315
2017-04-03T06:32:01.375Z,375
2017-04-03T06:33:13.906Z,375
2017-04-03T06:34:26.166Z,350
2017-04-03T06:35:38.719Z,355
2017-04-03T06:36:51.243Z,345
2017-04-03T06:38:03.464Z,405
2017-04-03T06:39:16.014Z,430
2017-04-03T06:40:28.528Z,410
2017-04-03T06:41:41.065Z,435
2017-04-03T06:42:53.348Z,405
2017-04-03T06:44:05.591Z,340
2017-04-03T06:45:17.814Z,365
2017-04-03T06:46:29.452Z,395
2017-04-03T06:47:42.003Z,380
2017-04-03T06:48:54.254Z,440
2017-04-03T06:50:06.814Z,390
2017-04-03T06:51:19.059Z,315
2017-04-03T06:52:31.612Z,355
2017-04-03T06:53:44.151Z,395
2017-04-03T06:54:56.670Z,325
2017-04-03T06:56:08.878Z,370
2017-04-03T06:57:21.421Z,415
2017-04-03T06:58:33.670Z,385
2017-04-03T06:59:45.888Z,355
2017-04-03T07:00:58.426Z,355
2017-04-03T07:02:10.954Z,380
2017-04-03T07:03:22.906Z,340
2017-04-03T07:04:35.152Z,400
2017-04-03T07:05:47.696Z,385
2017-04-03T07:07:00.241Z,410
2017-04-03T07:08:12.779Z,395
2017-04-03T07:09:25.311Z,430
2017-04-03T07:10:37.622Z,445
2017-04-03T07:11:49.867Z,395
2017-04-03T07:13:02.367Z,395
2017-04-03T07:14:14.905Z,440
2017-04-03T07:15:27.127Z,415
2017-04-03T07:16:39.355Z,445
2017-04-03T07:17:51.901Z,460
2017-04-03T07:19:04.424Z,470
2017-04-03T07:20:16.623Z,460
2017-04-03T07:21:29.189Z,420
2017-04-03T07:22:41.452Z,435
2017-04-03T07:23:54.026Z,605
2017-04-03T07:25:06.573Z,565
2017-04-03T07:26:19.098Z,540
2017-04-03T07:27:31.623Z,475
2017-04-03T07:28:43.618Z,505
2017-04-03T07:29:56.177Z,500
2017-04-03T07:31:08.682Z,485
2017-04-03T07:32:21.219Z,450
2017-04-03T07:33:33.490Z,420
2017-04-03T07:34:46.025Z,410
2017-04-03T07:35:58.286Z,365
2017-04-03T07:37:10.812Z,330
2017-04-03T07:38:23.353Z,315
2017-04-03T07:39:35.878Z,325
2017-04-03T07:40:47.802Z,340
2017-04-03T07:41:59.747Z,330
2017-04-03T07:43:12.295Z,315
2017-04-03T07:44:24.539Z,310
2017-04-03T07:45:37.078Z,330
2017-04-03T07:46:49.607Z,370
2017-04-03T07:48:01.845Z,385
2017-04-03T07:49:14.373Z,380
2017-04-03T07:50:26.595Z,385
2017-04-03T07:51:38.836Z,390
2017-04-03T07:52:51.336Z,385
2017-04-03T07:54:03.912Z,385
2017-04-03T07:55:16.467Z,370
2017-04-03T07:56:29.015Z,340
2017-04-03T07:57:41.561Z,315
2017-04-03T07:58:54.104Z,305
2017-04-03T08:00:06.625Z,315
2017-04-03T08:01:18.883Z,325
2017-04-03T08:02:31.451Z,330
2017-04-03T08:03:43.988Z,310
2017-04-03T08:04:56.520Z,290
2017-04-03T08:06:08.766Z,275
2017-04-03T08:07:21.010Z,265
2017-04-03T08:08:33.232Z,270
2017-04-03T08:09:45.473Z,280
2017-04-03T08:10:57.988Z,295
2017-04-03T08:12:10.519Z,305
2017-04-03T08:13:23.058Z,305
2017-04-03T08:14:35.605Z,300
2017-04-03T08:15:48.145Z,300
2017-04-03T08:17:00.374Z,315
2017-04-03T08:18:12.897Z,320
2017-04-03T08:19:25.422Z,335
2017-04-03T08:20:37.968Z,375
2017-04-03T08:21:50.527Z,410
2017-04-03T08:23:03.083Z,420
2017-04-03T08:24:15.327Z,430
2017-04-03T08:25:27.849Z,470
2017-04-03T08:26:39.789Z,500
2017-04-03T08:27:52.331Z,490
2017-04-03T08:29:04.864Z,465
2017-04-03T08:30:17.385Z,460
2017-04-03T08:31:29.927Z,460
2017-04-03T08:32:42.179Z,460
2017-04-03T08:33:54.747Z,470
2017-04-03T08:35:06.972Z,490
2017-04-03T08:36:19.531Z,505
2017-04-03T08:37:31.784Z,510
2017-04-03T08:38:43.719Z,510
2017-04-03T08:39:56.252Z,565
2017-04-03T08:41:08.772Z,610
2017-04-03T08:42:21.318Z,615
2017-04-03T08:43:33.245Z,625
2017-04-03T08:44:45.803Z,615
2017-04-03T08:45:58.343Z,575
2017-04-03T08:47:10.591Z,555
2017-04-03T08:48:23.120Z,565
2017-04-03T08:49:35.662Z,590
2017-04-03T08:50:47.886Z,575
2017-04-03T08:51:59.211Z,545
2017-04-03T08:53:11.782Z,510
2017-04-03T08:54:24.324Z,485
2017-04-03T08:55:36.863Z,475
2017-04-03T08:56:49.397Z,460
2017-04-03T08:58:02.214Z,440
2017-04-03T08:59:13.839Z,430
2017-04-03T09:00:26.083Z,425
2017-04-03T09:01:37.699Z,435
2017-04-03T09:02:49.899Z,445
2017-04-03T09:04:02.144Z,445
2017-04-03T09:05:14.693Z,450
2017-04-03T09:06:26.651Z,440
2017-04-03T09:07:38.895Z,425
2017-04-03T09:08:51.426Z,430
2017-04-03T09:10:03.945Z,475
2017-04-03T09:11:16.166Z,530
2017-04-03T09:12:28.711Z,545
2017-04-03T09:13:41.239Z,520
2017-04-03T09:14:53.800Z,495
2017-04-03T09:16:06.325Z,465
2017-04-03T09:17:18.525Z,430
2017-04-03T09:18:31.051Z,420
2017-04-03T09:19:43.588Z,410
2017-04-03T09:20:56.118Z,390
2017-04-03T09:22:08.359Z,375
2017-04-03T09:23:20.622Z,370
2017-04-03T09:24:32.850Z,375
2017-04-03T09:25:44.784Z,375
2017-04-03T09:26:57.306Z,380
2017-04-03T09:28:09.552Z,375
2017-04-03T09:29:22.085Z,360
2017-04-03T09:30:34.303Z,360
2017-04-03T09:31:46.543Z,360
2017-04-03T09:32:58.472Z,355
2017-04-03T09:34:10.984Z,350
2017-04-03T09:35:23.513Z,350
2017-04-03T09:36:36.033Z,355
2017-04-03T09:37:48.569Z,370
2017-04-03T09:39:00.822Z,385
2017-04-03T09:40:13.344Z,400
2017-04-03T09:41:25.869Z,425
2017-04-03T09:42:38.437Z,430
2017-04-03T09:43:50.964Z,450
2017-04-03T09:45:03.480Z,465
2017-04-03T09:46:16.044Z,500
2017-04-03T09:47:28.569Z,515
2017-04-03T09:48:40.212Z,570
2017-04-03T09:49:52.758Z,625
2017-04-03T09:51:04.985Z,635
2017-04-03T09:52:17.552Z,635
2017-04-03T09:53:29.778Z,640
2017-04-03T09:54:42.299Z,635
2017-04-03T09:55:54.865Z,620
2017-04-03T09:57:07.407Z,610
2017-04-03T09:58:19.961Z,615
2017-04-03T09:59:32.499Z,630
2017-04-03T10:00:45.027Z,665
2017-04-03T10:01:57.570Z,660
2017-04-03T10:03:09.511Z,650
2017-04-03T10:04:22.016Z,640
2017-04-03T10:05:34.578Z,620
2017-04-03T10:06:47.107Z,615
2017-04-03T10:07:59.641Z,590
2017-04-03T10:09:12.145Z,535
2017-04-03T10:10:24.387Z,495
2017-04-03T10:11:36.915Z,470
2017-04-03T10:12:49.441Z,460
2017-04-03T10:14:01.684Z,455
2017-04-03T10:15:14.243Z,470
2017-04-03T10:16:26.471Z,495
2017-04-03T10:17:39.013Z,505
2017-04-03T10:18:51.556Z,515
2017-04-03T10:20:04.111Z,535
2017-04-03T10:21:16.329Z,580
2017-04-03T10:22:28.579Z,640
2017-04-03T10:23:40.801Z,700
2017-04-03T10:24:53.338Z,705
2017-04-03T10:26:05.262Z,680
2017-04-03T10:27:17.465Z,625
2017-04-03T10:28:29.759Z,570
2017-04-03T10:29:41.994Z,545
2017-04-03T10:30:54.532Z,540
2017-04-03T10:32:07.045Z,540
2017-04-03T10:33:19.599Z,540
2017-04-03T10:34:32.131Z,540
2017-04-03T10:35:44.333Z,560
2017-04-03T10:36:56.880Z,580
2017-04-03T10:38:09.423Z,580
2017-04-03T10:39:21.645Z,580
2017-04-03T10:40:34.171Z,575
2017-04-03T10:41:46.714Z,570
2017-04-03T10:42:59.255Z,565
2017-04-03T10:44:11.495Z,545
2017-04-03T10:45:24.047Z,510
2017-04-03T10:46:36.273Z,485
2017-04-03T10:47:48.832Z,490
2017-04-03T10:49:00.782Z,530
2017-04-03T10:50:12.702Z,540
2017-04-03T10:51:25.252Z,530
2017-04-03T10:52:37.475Z,535
2017-04-03T10:53:50.019Z,530
2017-04-03T10:55:02.540Z,505
2017-04-03T10:56:15.060Z,480
2017-04-03T10:57:27.303Z,470
2017-04-03T10:58:39.257Z,470
2017-04-03T10:59:51.483Z,500
2017-04-03T11:01:04.042Z,555
2017-04-03T11:02:16.286Z,605
2017-04-03T11:03:28.212Z,610
2017-04-03T11:04:40.450Z,585
2017-04-03T11:05:52.982Z,560
2017-04-03T11:07:05.524Z,520
2017-04-03T11:08:18.048Z,475
2017-04-03T11:09:30.309Z,430
2017-04-03T11:10:41.941Z,415
2017-04-03T11:11:54.199Z,420
2017-04-03T11:13:06.450Z,440
2017-04-03T11:14:18.379Z,460
2017-04-03T11:15:30.921Z,455
2017-04-03T11:16:43.138Z,455
2017-04-03T11:17:55.667Z,450
2017-04-03T11:19:08.463Z,435
2017-04-03T11:20:21.008Z,430
2017-04-03T11:21:33.245Z,435
2017-04-03T11:22:45.464Z,430
2017-04-03T11:23:57.996Z,425
2017-04-03T11:25:10.241Z,430
2017-04-03T11:26:22.435Z,440
2017-04-03T11:27:34.955Z,435
2017-04-03T11:28:47.196Z,430
2017-04-03T11:29:59.744Z,410
2017-04-03T11:31:12.288Z,390
2017-04-03T11:32:24.544Z,390
2017-04-03T11:33:37.090Z,385
2017-04-03T11:34:49.048Z,380
2017-04-03T11:36:01.577Z,380
2017-04-03T11:37:14.129Z,375
2017-04-03T11:38:26.688Z,370
2017-04-03T11:39:39.249Z,365
2017-04-03T11:40:51.789Z,365
2017-04-03T11:42:03.390Z,380
2017-04-03T11:43:15.652Z,395
2017-04-03T11:44:28.176Z,395
2017-04-03T11:45:40.743Z,400
2017-04-03T11:46:53.293Z,410
2017-04-03T11:48:05.810Z,425
2017-04-03T11:49:18.035Z,445
2017-04-03T11:50:30.557Z,460
2017-04-03T11:51:43.115Z,465
2017-04-03T11:52:55.347Z,465
2017-04-03T11:54:07.869Z,470
2017-04-03T11:55:20.428Z,470
2017-04-03T11:56:32.958Z,470
2017-04-03T11:57:45.495Z,470
2017-04-03T11:58:58.048Z,485
2017-04-03T12:00:10.562Z,510
2017-04-03T12:01:22.486Z,525
2017-04-03T12:02:35.014Z,505
2017-04-03T12:03:47.579Z,480
2017-04-03T12:05:00.108Z,450
2017-04-03T12:06:12.624Z,440
2017-04-03T12:07:25.141Z,445
2017-04-03T12:08:37.647Z,460
2017-04-03T12:09:50.187Z,475
2017-04-03T12:11:02.738Z,480
2017-04-03T12:12:14.680Z,480
2017-04-03T12:13:26.917Z,460
2017-04-03T12:14:39.471Z,445
2017-04-03T12:15:51.995Z,450
2017-04-03T12:17:04.538Z,450
2017-04-03T12:18:16.761Z,445
2017-04-03T12:19:29.307Z,440
2017-04-03T12:20:41.546Z,450
2017-04-03T12:21:54.050Z,470
2017-04-03T12:23:06.592Z,505
2017-04-03T12:24:18.830Z,535
2017-04-03T12:25:31.062Z,535
2017-04-03T12:26:43.607Z,515
2017-04-03T12:27:55.827Z,510
2017-04-03T12:29:08.349Z,510
2017-04-03T12:30:20.646Z,515
2017-04-03T12:31:33.223Z,510
2017-04-03T12:32:45.460Z,510
2017-04-03T12:33:57.397Z,520
2017-04-03T12:35:09.926Z,530
2017-04-03T12:36:22.451Z,515
2017-04-03T12:37:34.675Z,505
2017-04-03T12:38:46.917Z,505
2017-04-03T12:39:58.834Z,515
2017-04-03T12:41:11.331Z,520
2017-04-03T12:42:23.901Z,530
2017-04-03T12:43:36.426Z,550
2017-04-03T12:44:48.403Z,590
2017-04-03T12:46:00.964Z,635
2017-04-03T12:47:13.183Z,670
2017-04-03T12:48:25.724Z,690
2017-04-03T12:49:38.273Z,700
2017-04-03T12:50:50.800Z,720
2017-04-03T12:52:02.722Z,725
2017-04-03T12:53:14.985Z,720
2017-04-03T12:54:27.528Z,705
2017-04-03T12:55:40.056Z,690
2017-04-03T12:56:52.583Z,695
2017-04-03T12:58:04.844Z,695
2017-04-03T12:59:16.772Z,705
2017-04-03T13:00:29.020Z,720
2017-04-03T13:01:41.536Z,740
2017-04-03T13:02:54.082Z,745
2017-04-03T13:04:06.320Z,750
2017-04-03T13:05:18.542Z,775
2017-04-03T13:06:30.787Z,815
2017-04-03T13:07:43.315Z,850
2017-04-03T13:08:55.236Z,855
2017-04-03T13:10:07.475Z,840
2017-04-03T13:11:19.404Z,830
2017-04-03T13:12:31.628Z,795
2017-04-03T13:13:43.849Z,770
2017-04-03T13:14:56.366Z,780
2017-04-03T13:16:08.905Z,790
2017-04-03T13:17:21.462Z,785
2017-04-03T13:18:33.931Z,770
2017-04-03T13:19:45.550Z,740
2017-04-03T13:20:57.788Z,730
2017-04-03T13:22:10.335Z,705
2017-04-03T13:23:22.863Z,680
2017-04-03T13:24:35.385Z,665
2017-04-03T13:25:47.009Z,645
2017-04-03T13:26:59.252Z,630
2017-04-03T13:28:11.477Z,620
2017-04-03T13:29:23.693Z,615
2017-04-03T13:30:35.914Z,605
2017-04-03T13:31:48.450Z,585
2017-04-03T13:33:00.704Z,570
2017-04-03T13:34:12.643Z,530
2017-04-03T13:35:24.892Z,515
2017-04-03T13:36:37.144Z,510
2017-04-03T13:37:49.365Z,520
2017-04-03T13:39:01.566Z,525
2017-04-03T13:40:14.108Z,530
2017-04-03T13:41:26.346Z,515
2017-04-03T13:42:37.993Z,485
2017-04-03T13:43:50.536Z,450
2017-04-03T13:45:03.084Z,425
2017-04-03T13:46:15.328Z,420
2017-04-03T13:47:27.556Z,420
2017-04-03T13:48:39.481Z,430
2017-04-03T13:49:51.721Z,450
2017-04-03T13:51:03.369Z,470
2017-04-03T13:52:15.622Z,480
2017-04-03T13:53:28.135Z,460
2017-04-03T13:54:40.356Z,450
2017-04-03T13:55:52.580Z,445
2017-04-03T13:57:05.106Z,430
2017-04-03T13:58:17.344Z,425
2017-04-03T13:59:29.569Z,440
2017-04-03T14:00:41.786Z,465
2017-04-03T14:01:54.307Z,495
2017-04-03T14:03:06.584Z,515
2017-04-03T14:04:19.141Z,530
2017-04-03T14:05:31.652Z,515
2017-04-03T14:06:44.207Z,495
2017-04-03T14:07:56.736Z,470
2017-04-03T14:09:09.258Z,455
2017-04-03T14:10:21.784Z,440
2017-04-03T14:11:34.024Z,440
2017-04-03T14:12:46.263Z,450
2017-04-03T14:13:58.796Z,460
2017-04-03T14:15:11.341Z,465
2017-04-03T14:16:23.911Z,475
2017-04-03T14:17:36.146Z,485
2017-04-03T14:18:48.402Z,490
2017-04-03T14:20:00.923Z,490
2017-04-03T14:21:12.858Z,500
2017-04-03T14:22:25.416Z,495
2017-04-03T14:23:37.983Z,485
2017-04-03T14:24:50.504Z,475
2017-04-03T14:26:02.999Z,460
2017-04-03T14:27:15.544Z,460
2017-04-03T14:28:27.166Z,460
2017-04-03T14:29:39.687Z,455
2017-04-03T14:30:52.235Z,450
2017-04-03T14:32:04.457Z,445
2017-04-03T14:33:17.003Z,450
2017-04-03T14:34:29.542Z,455
2017-04-03T14:35:41.763Z,460
2017-04-03T14:36:54.016Z,470
2017-04-03T14:38:06.634Z,480
2017-04-03T14:39:19.160Z,480
2017-04-03T14:40:31.122Z,480
2017-04-03T14:41:43.646Z,465
2017-04-03T14:42:56.195Z,450
2017-04-03T14:44:08.738Z,445
2017-04-03T14:45:21.266Z,450
2017-04-03T14:46:33.484Z,460
2017-04-03T14:47:46.029Z,460
2017-04-03T14:48:58.249Z,465
2017-04-03T14:50:09.889Z,460
2017-04-03T14:51:22.417Z,450
2017-04-03T14:52:34.677Z,430
2017-04-03T14:53:46.581Z,415
2017-04-03T14:54:58.795Z,395
2017-04-03T14:56:11.054Z,375
2017-04-03T14:57:23.589Z,365
2017-04-03T14:58:36.130Z,360
2017-04-03T14:59:47.778Z,355
2017-04-03T15:00:59.706Z,350
2017-04-03T15:02:12.229Z,345
2017-04-03T15:03:24.448Z,340
2017-04-03T15:04:36.661Z,330
2017-04-03T15:05:48.293Z,325
2017-04-03T15:07:00.510Z,325
2017-04-03T15:08:13.088Z,325
2017-04-03T15:09:25.658Z,325
2017-04-03T15:10:38.216Z,325
2017-04-03T15:11:50.741Z,325
2017-04-03T15:13:02.693Z,325
2017-04-03T15:14:15.228Z,315
2017-04-03T15:15:27.439Z,310
2017-04-03T15:16:39.979Z,310
2017-04-03T15:17:52.819Z,305
2017-04-03T15:19:05.076Z,305
2017-04-03T15:20:17.294Z,295
2017-04-03T15:21:29.833Z,295
2017-04-03T15:22:42.061Z,300
2017-04-03T15:23:54.308Z,305
2017-04-03T15:25:06.826Z,305
2017-04-03T15:26:19.364Z,310
2017-04-03T15:27:31.620Z,315
2017-04-03T15:28:44.166Z,315
2017-04-03T15:29:56.104Z,310
2017-04-03T15:31:08.320Z,305
2017-04-03T15:32:20.555Z,290
2017-04-03T15:33:33.114Z,275
2017-04-03T15:34:45.664Z,270
2017-04-03T15:35:58.207Z,275
2017-04-03T15:37:10.451Z,280
2017-04-03T15:38:22.398Z,275
2017-04-03T15:39:34.918Z,265
2017-04-03T15:40:47.465Z,260
2017-04-03T15:41:59.397Z,260
2017-04-03T15:43:11.669Z,260
2017-04-03T15:44:24.227Z,260
2017-04-03T15:45:36.757Z,260
2017-04-03T15:46:49.305Z,255
2017-04-03T15:48:01.866Z,250
2017-04-03T15:49:14.423Z,235
2017-04-03T15:50:26.940Z,225
2017-04-03T15:51:39.437Z,225
2017-04-03T15:52:51.680Z,225
2017-04-03T15:54:03.903Z,220
2017-04-03T15:55:16.423Z,215
2017-04-03T15:56:28.964Z,205
2017-04-03T15:57:41.195Z,195
2017-04-03T15:58:52.839Z,185
2017-04-03T16:00:05.360Z,180
2017-04-03T16:01:17.919Z,175
2017-04-03T16:02:30.170Z,175
2017-04-03T16:03:42.419Z,175
2017-04-03T16:04:54.944Z,185
2017-04-03T16:06:07.483Z,190
2017-04-03T16:07:20.037Z,195
2017-04-03T16:08:32.555Z,200
2017-04-03T16:09:44.774Z,205
2017-04-03T16:10:56.713Z,205
2017-04-03T16:12:09.241Z,200
2017-04-03T16:13:21.766Z,190
2017-04-03T16:14:34.290Z,175
2017-04-03T16:15:46.229Z,170
2017-04-03T16:16:58.754Z,165
2017-04-03T16:18:11.292Z,165
2017-04-03T16:19:23.517Z,155
2017-04-03T16:20:36.039Z,145
2017-04-03T16:21:48.561Z,130
2017-04-03T16:23:01.033Z,125
2017-04-03T16:24:13.281Z,120
2017-04-03T16:25:25.524Z,120
2017-04-03T16:26:37.463Z,120
2017-04-03T16:27:49.709Z,120
2017-04-03T16:29:02.255Z,125
2017-04-03T16:30:14.155Z,120
2017-04-03T16:31:26.697Z,115
2017-04-03T16:32:38.928Z,110
2017-04-03T16:33:51.445Z,105
2017-04-03T16:35:03.086Z,100
2017-04-03T16:36:15.613Z,95
2017-04-03T16:37:28.134Z,95
2017-04-03T16:38:40.054Z,90
2017-04-03T16:39:52.277Z,85
2017-04-03T16:41:03.914Z,80
2017-04-03T16:42:16.138Z,75
2017-04-03T16:43:28.384Z,70
2017-04-03T16:44:40.634Z,70
2017-04-03T16:45:53.152Z,70
2017-04-03T16:47:05.693Z,65
2017-04-03T16:48:17.318Z,60
2017-04-03T16:49:28.944Z,60
2017-04-03T16:50:41.203Z,55
2017-04-03T16:51:53.452Z,55
2017-04-03T16:53:06.000Z,55
2017-04-03T16:54:17.923Z,55
2017-04-03T16:55:29.895Z,50
2017-04-03T16:56:42.419Z,50
2017-04-03T16:57:54.963Z,50
2017-04-03T16:59:07.185Z,45